createdAt,value
2022-12-01T00:01:35.240Z,51.10
2022-12-01T00:04:03.935Z,48.40
2022-12-01T00:06:31.946Z,43.10
2022-12-01T00:09:20.128Z,40.90
2022-12-01T00:11:48.894Z,38.30
2022-12-01T00:14:17.618Z,42.60
2022-12-01T00:16:45.940Z,44.50
2022-12-01T00:19:13.976Z,46.10
2022-12-01T00:21:42.085Z,45.60
2022-12-01T00:24:11.657Z,47.50
2022-12-01T00:26:39.702Z,45.30
2022-12-01T00:29:09.339Z,44.50
2022-12-01T00:31:37.608Z,47.50
2022-12-01T00:34:11.121Z,44.20
2022-12-01T00:36:39.676Z,41.20
2022-12-01T00:39:09.287Z,39.00
2022-12-01T00:41:37.617Z,40.10
2022-12-01T00:44:05.912Z,36.40
2022-12-01T00:46:33.992Z,36.20
2022-12-01T00:49:01.840Z,42.10
2022-12-01T00:51:30.235Z,40.60
2022-12-01T00:53:58.495Z,39.50
2022-12-01T00:56:26.615Z,40.80
2022-12-01T00:58:54.571Z,40.90
2022-12-01T01:01:22.899Z,40.00
2022-12-01T01:03:50.942Z,40.20
2022-12-01T01:06:19.254Z,40.80
2022-12-01T01:08:47.218Z,40.70
2022-12-01T01:11:15.053Z,36.20
2022-12-01T01:13:43.296Z,34.30
2022-12-01T01:16:16.627Z,33.10
2022-12-01T01:18:44.950Z,31.70
2022-12-01T01:21:16.076Z,37.40
2022-12-01T01:23:44.418Z,40.80
2022-12-01T01:26:20.228Z,39.70
2022-12-01T01:28:49.354Z,39.70
2022-12-01T01:31:20.778Z,41.90
2022-12-01T01:33:49.452Z,43.10
2022-12-01T01:36:19.187Z,38.60
2022-12-01T01:38:47.634Z,34.30
2022-12-01T01:41:16.546Z,34.40
2022-12-01T01:43:51.131Z,33.40
2022-12-01T01:46:20.616Z,37.60
2022-12-01T01:49:06.044Z,37.50
2022-12-01T01:51:37.153Z,37.20
2022-12-01T01:54:10.031Z,38.20
2022-12-01T01:56:38.390Z,38.90
2022-12-01T01:59:06.632Z,40.30
2022-12-01T02:01:34.590Z,39.90
2022-12-01T02:04:03.430Z,38.20
2022-12-01T02:06:31.441Z,40.80
2022-12-01T02:08:59.665Z,41.00
2022-12-01T02:11:48.835Z,36.50
2022-12-01T02:14:38.390Z,35.40
2022-12-01T02:17:30.750Z,32.70
2022-12-01T02:20:22.838Z,37.60
2022-12-01T02:23:37.119Z,38.10
2022-12-01T02:26:08.044Z,35.20
2022-12-01T02:29:04.063Z,35.30
2022-12-01T02:31:44.376Z,35.40
2022-12-01T02:34:27.648Z,35.40
2022-12-01T02:37:08.079Z,34.20
2022-12-01T02:39:43.027Z,33.10
2022-12-01T02:42:50.300Z,28.30
2022-12-01T02:45:49.196Z,25.80
2022-12-01T02:48:49.408Z,24.30
2022-12-01T02:51:22.867Z,30.70
2022-12-01T02:53:51.920Z,30.70
2022-12-01T02:56:22.667Z,31.50
2022-12-01T02:58:51.313Z,30.80
2022-12-01T03:01:46.124Z,31.20
2022-12-01T03:04:56.892Z,29.70
2022-12-01T03:07:52.506Z,27.80
2022-12-01T03:10:42.436Z,29.90
2022-12-01T03:13:31.779Z,29.20
2022-12-01T03:16:12.886Z,25.20
2022-12-01T03:18:46.362Z,25.60
2022-12-01T03:21:24.515Z,24.00
2022-12-01T03:23:58.495Z,27.10
2022-12-01T03:26:30.916Z,28.40
2022-12-01T03:29:05.722Z,31.40
2022-12-01T03:31:40.950Z,29.80
2022-12-01T03:34:29.444Z,31.70
2022-12-01T03:37:03.481Z,31.30
2022-12-01T03:39:35.850Z,30.60
2022-12-01T03:42:38.979Z,30.50
2022-12-01T03:45:11.436Z,29.70
2022-12-01T03:47:40.684Z,26.60
2022-12-01T03:50:13.995Z,23.50
2022-12-01T03:53:07.580Z,22.00
2022-12-01T03:55:42.048Z,24.90
2022-12-01T03:58:20.363Z,26.10
2022-12-01T04:00:57.547Z,25.80
2022-12-01T04:03:26.633Z,27.40
2022-12-01T04:05:54.617Z,28.60
2022-12-01T04:08:22.699Z,27.00
2022-12-01T04:10:50.861Z,27.90
2022-12-01T04:13:25.704Z,26.70
2022-12-01T04:15:54.728Z,21.50
2022-12-01T04:18:22.726Z,19.40
2022-12-01T04:20:50.891Z,19.00
2022-12-01T04:23:37.255Z,21.20
2022-12-01T04:26:05.613Z,22.90
2022-12-01T04:28:34.076Z,23.90
2022-12-01T04:31:02.370Z,23.40
2022-12-01T04:33:30.372Z,21.40
2022-12-01T04:36:00.110Z,23.00
2022-12-01T04:38:30.855Z,21.20
2022-12-01T04:40:59.039Z,22.00
2022-12-01T04:43:26.970Z,20.80
2022-12-01T04:45:55.166Z,21.30
2022-12-01T04:48:23.137Z,20.50
2022-12-01T04:50:51.025Z,18.30
2022-12-01T04:53:19.119Z,18.40
2022-12-01T04:55:47.069Z,17.00
2022-12-01T04:58:15.655Z,18.60
2022-12-01T05:00:44.064Z,20.90
2022-12-01T05:03:15.056Z,20.20
2022-12-01T05:05:43.209Z,21.10
2022-12-01T05:08:11.862Z,22.30
2022-12-01T05:10:39.770Z,24.20
2022-12-01T05:13:07.710Z,43.80
2022-12-01T05:15:36.938Z,50.30
2022-12-01T05:18:06.060Z,42.00
2022-12-01T05:20:53.015Z,34.30
2022-12-01T05:23:20.876Z,21.90
2022-12-01T05:25:48.811Z,18.70
2022-12-01T05:28:16.784Z,16.60
2022-12-01T05:30:45.106Z,15.30
2022-12-01T05:33:12.961Z,18.30
2022-12-01T05:35:41.049Z,19.80
2022-12-01T05:38:09.372Z,16.10
2022-12-01T05:40:37.909Z,15.80
2022-12-01T05:43:06.499Z,16.00
2022-12-01T05:45:34.984Z,17.60
2022-12-01T05:48:03.114Z,19.70
2022-12-01T05:50:31.430Z,18.20
2022-12-01T05:52:59.387Z,16.00
2022-12-01T05:55:27.221Z,18.70
2022-12-01T05:57:55.128Z,13.50
2022-12-01T06:00:23.157Z,13.80
2022-12-01T06:02:51.215Z,16.00
2022-12-01T06:05:19.704Z,16.10
2022-12-01T06:07:47.943Z,16.90
2022-12-01T06:10:16.804Z,18.50
2022-12-01T06:12:45.053Z,17.50
2022-12-01T06:15:14.080Z,17.70
2022-12-01T06:17:42.223Z,16.80
2022-12-01T06:20:11.527Z,18.40
2022-12-01T06:22:39.901Z,17.30
2022-12-01T06:25:08.720Z,16.90
2022-12-01T06:27:37.105Z,16.00
2022-12-01T06:30:05.822Z,14.50
2022-12-01T06:32:33.901Z,19.20
2022-12-01T06:35:02.385Z,20.00
2022-12-01T06:37:30.505Z,20.70
2022-12-01T06:39:58.389Z,19.50
2022-12-01T06:42:30.259Z,19.70
2022-12-01T06:44:58.081Z,19.00
2022-12-01T06:47:25.852Z,18.70
2022-12-01T06:49:53.998Z,19.20
2022-12-01T06:52:21.929Z,17.60
2022-12-01T06:54:49.835Z,18.10
2022-12-01T06:57:18.389Z,14.70
2022-12-01T06:59:47.340Z,15.60
2022-12-01T07:02:17.047Z,17.60
2022-12-01T07:04:45.572Z,17.30
2022-12-01T07:07:13.414Z,18.70
2022-12-01T07:09:41.404Z,19.30
2022-12-01T07:12:10.173Z,19.50
2022-12-01T07:14:38.401Z,17.30
2022-12-01T07:17:06.230Z,18.90
2022-12-01T07:19:34.429Z,17.90
2022-12-01T07:22:02.648Z,15.70
2022-12-01T07:24:30.890Z,15.20
2022-12-01T07:26:59.669Z,17.40
2022-12-01T07:29:27.480Z,17.50
2022-12-01T07:31:55.356Z,29.40
2022-12-01T07:34:23.295Z,21.50
2022-12-01T07:36:51.528Z,23.40
2022-12-01T07:39:19.500Z,32.40
2022-12-01T07:41:47.830Z,37.80
2022-12-01T07:44:15.922Z,30.40
2022-12-01T07:46:44.065Z,28.20
2022-12-01T07:49:14.998Z,25.10
2022-12-01T07:51:42.946Z,25.50
2022-12-01T07:54:14.271Z,28.50
2022-12-01T07:56:42.549Z,28.90
2022-12-01T07:59:10.527Z,27.20
2022-12-01T08:01:44.066Z,25.80
2022-12-01T08:04:13.128Z,25.00
2022-12-01T08:06:41.045Z,28.40
2022-12-01T08:09:09.408Z,29.00
2022-12-01T08:11:37.511Z,28.70
2022-12-01T08:14:05.381Z,26.70
2022-12-01T08:16:33.379Z,27.50
2022-12-01T08:19:01.499Z,29.30
2022-12-01T08:21:29.444Z,35.00
2022-12-01T08:23:58.471Z,32.20
2022-12-01T08:26:27.221Z,30.80
2022-12-01T08:28:55.325Z,34.90
2022-12-01T08:31:27.693Z,36.10
2022-12-01T08:33:56.386Z,34.20
2022-12-01T08:36:25.188Z,36.10
2022-12-01T08:38:55.509Z,36.20
2022-12-01T08:41:24.678Z,37.10
2022-12-01T08:43:58.425Z,33.90
2022-12-01T08:46:32.522Z,33.30
2022-12-01T08:49:01.250Z,34.60
2022-12-01T08:51:29.167Z,39.30
2022-12-01T08:53:58.865Z,40.60
2022-12-01T08:56:34.336Z,41.40
2022-12-01T08:59:02.590Z,40.60
2022-12-01T09:01:30.597Z,43.90
2022-12-01T09:04:08.938Z,45.20
2022-12-01T09:06:44.742Z,42.60
2022-12-01T09:09:18.815Z,47.30
2022-12-01T09:11:47.640Z,53.70
2022-12-01T09:14:18.069Z,46.90
2022-12-01T09:16:48.155Z,42.20
2022-12-01T09:19:24.155Z,40.70
2022-12-01T09:21:53.627Z,42.10
2022-12-01T09:24:21.873Z,41.30
2022-12-01T09:26:50.403Z,42.20
2022-12-01T09:29:18.572Z,39.00
2022-12-01T09:31:46.526Z,38.10
2022-12-01T09:34:17.434Z,37.50
2022-12-01T09:36:46.778Z,39.70
2022-12-01T09:39:19.954Z,36.80
2022-12-01T09:41:56.403Z,34.60
2022-12-01T09:44:48.880Z,31.10
2022-12-01T09:47:22.915Z,28.10
2022-12-01T09:50:02.684Z,30.90
2022-12-01T09:53:02.529Z,28.90
2022-12-01T09:55:32.160Z,27.00
2022-12-01T09:58:02.504Z,27.60
2022-12-01T10:00:34.298Z,27.90
2022-12-01T10:03:24.947Z,27.40
2022-12-01T10:06:28.828Z,25.80
2022-12-01T10:09:10.637Z,24.20
2022-12-01T10:11:41.611Z,23.60
2022-12-01T10:14:19.650Z,21.90
2022-12-01T10:16:51.383Z,20.70
2022-12-01T10:19:33.195Z,19.70
2022-12-01T10:22:17.542Z,23.00
2022-12-01T10:25:07.113Z,20.00
2022-12-01T10:27:38.489Z,19.70
2022-12-01T10:30:09.810Z,18.40
2022-12-01T10:32:54.586Z,19.60
2022-12-01T10:35:25.943Z,19.60
2022-12-01T10:38:00.095Z,19.50
2022-12-01T10:40:29.005Z,18.80
2022-12-01T10:42:57.094Z,21.10
2022-12-01T10:45:28.378Z,20.80
2022-12-01T10:48:16.605Z,21.00
2022-12-01T10:51:10.079Z,16.30
2022-12-01T10:53:38.571Z,17.80
2022-12-01T10:56:14.324Z,20.50
2022-12-01T10:58:50.021Z,19.50
2022-12-01T11:01:31.949Z,20.20
2022-12-01T11:04:03.264Z,21.90
2022-12-01T11:06:32.615Z,20.20
2022-12-01T11:09:19.223Z,20.00
2022-12-01T11:12:02.528Z,19.40
2022-12-01T11:14:44.810Z,20.60
2022-12-01T11:17:33.914Z,18.90
2022-12-01T11:20:27.907Z,19.50
2022-12-01T11:23:18.573Z,18.20
2022-12-01T11:26:00.942Z,16.30
2022-12-01T11:28:30.102Z,19.10
2022-12-01T11:31:04.106Z,19.60
2022-12-01T11:33:48.164Z,18.50
2022-12-01T11:36:25.286Z,31.40
2022-12-01T11:38:59.259Z,21.00
2022-12-01T11:41:40.924Z,24.30
2022-12-01T11:44:43.619Z,21.50
2022-12-01T11:47:23.184Z,19.30
2022-12-01T11:49:54.279Z,19.00
2022-12-01T11:52:30.696Z,21.20
2022-12-01T11:55:08.426Z,20.60
2022-12-01T11:57:42.584Z,20.70
2022-12-01T12:00:18.358Z,19.60
2022-12-01T12:03:10.981Z,20.00
2022-12-01T12:05:39.095Z,20.60
2022-12-01T12:08:34.374Z,22.80
2022-12-01T12:11:29.163Z,21.10
2022-12-01T12:13:56.901Z,21.60
2022-12-01T12:16:44.104Z,22.10
2022-12-01T12:19:22.430Z,23.20
2022-12-01T12:22:41.949Z,22.10
2022-12-01T12:25:34.650Z,20.60
2022-12-01T12:28:39.409Z,20.70
2022-12-01T12:31:25.582Z,22.30
2022-12-01T12:33:59.281Z,21.60
2022-12-01T12:36:59.183Z,22.60
2022-12-01T12:40:04.128Z,22.80
2022-12-01T12:43:14.217Z,21.50
2022-12-01T12:45:49.101Z,16.70
2022-12-01T12:48:19.745Z,20.90
2022-12-01T12:51:05.774Z,22.00
2022-12-01T12:53:44.848Z,22.20
2022-12-01T12:56:18.138Z,19.60
2022-12-01T12:59:04.382Z,20.60
2022-12-01T13:01:54.004Z,20.00
2022-12-01T13:04:30.078Z,20.30
2022-12-01T13:07:07.244Z,20.10
2022-12-01T13:09:51.549Z,21.50
2022-12-01T13:12:30.222Z,21.80
2022-12-01T13:15:19.565Z,19.30
2022-12-01T13:17:58.735Z,19.10
2022-12-01T13:20:29.831Z,19.40
2022-12-01T13:23:00.850Z,21.40
2022-12-01T13:25:39.728Z,20.40
2022-12-01T13:28:40.471Z,22.50
2022-12-01T13:31:13.883Z,20.50
2022-12-01T13:33:57.465Z,20.90
2022-12-01T13:39:18.259Z,20.80
2022-12-01T13:41:56.824Z,22.80
2022-12-01T13:44:33.717Z,25.30
2022-12-01T13:47:30.416Z,24.10
2022-12-01T13:50:36.095Z,22.60
2022-12-01T13:53:19.869Z,20.90
2022-12-01T13:55:57.078Z,20.60
2022-12-01T13:58:47.501Z,20.30
2022-12-01T14:01:22.068Z,21.00
2022-12-01T14:03:56.903Z,22.30
2022-12-01T14:06:35.865Z,21.30
2022-12-01T14:09:17.839Z,20.70
2022-12-01T14:12:01.392Z,21.20
2022-12-01T14:14:36.764Z,21.20
2022-12-01T14:17:06.014Z,21.80
2022-12-01T14:19:39.745Z,21.10
2022-12-01T14:22:30.866Z,20.10
2022-12-01T14:24:59.734Z,18.90
2022-12-01T14:27:42.525Z,22.10
2022-12-01T14:30:41.806Z,21.20
2022-12-01T14:33:46.388Z,21.20
2022-12-01T14:36:23.454Z,19.80
2022-12-01T14:39:01.476Z,21.40
2022-12-01T14:41:42.510Z,21.70
2022-12-01T14:44:19.709Z,21.10
2022-12-01T14:47:21.114Z,20.80
2022-12-01T14:50:06.231Z,22.60
2022-12-01T14:52:38.731Z,22.00
2022-12-01T14:55:15.865Z,19.70
2022-12-01T14:57:50.568Z,20.20
2022-12-01T15:00:22.843Z,20.90
2022-12-01T15:02:56.793Z,19.30
2022-12-01T15:05:31.173Z,19.50
2022-12-01T15:08:40.299Z,21.00
2022-12-01T15:11:09.437Z,20.50
2022-12-01T15:13:51.247Z,21.90
2022-12-01T15:16:22.114Z,21.80
2022-12-01T15:18:50.554Z,22.20
2022-12-01T15:21:23.568Z,21.70
2022-12-01T15:24:03.270Z,20.00
2022-12-01T15:26:34.328Z,20.50
2022-12-01T15:29:21.441Z,21.20
2022-12-01T15:31:53.483Z,20.50
2022-12-01T15:34:27.187Z,21.60
2022-12-01T15:36:56.040Z,22.70
2022-12-01T15:39:35.817Z,20.50
2022-12-01T15:42:04.258Z,22.80
2022-12-01T15:44:35.295Z,21.40
2022-12-01T15:47:36.124Z,20.90
2022-12-01T15:52:43.094Z,18.90
2022-12-01T15:55:25.514Z,19.10
2022-12-01T15:57:54.807Z,19.20
2022-12-01T16:00:23.564Z,19.20
2022-12-01T16:02:57.785Z,19.90
2022-12-01T16:05:29.010Z,20.10
2022-12-01T16:08:13.966Z,19.90
2022-12-01T16:10:42.620Z,19.80
2022-12-01T16:13:41.521Z,19.30
2022-12-01T16:16:28.442Z,19.60
2022-12-01T16:19:05.630Z,19.70
2022-12-01T16:21:46.804Z,19.10
2022-12-01T16:24:37.803Z,19.40
2022-12-01T16:27:16.654Z,19.40
2022-12-01T16:29:50.169Z,19.80
2022-12-01T16:32:44.396Z,20.30
2022-12-01T16:35:38.851Z,20.40
2022-12-01T16:38:17.286Z,20.50
2022-12-01T16:40:52.317Z,22.20
2022-12-01T16:43:25.412Z,21.50
2022-12-01T16:46:03.397Z,20.10
2022-12-01T16:48:31.757Z,20.60
2022-12-01T16:51:03.615Z,21.50
2022-12-01T16:53:31.925Z,24.00
2022-12-01T16:56:02.184Z,23.40
2022-12-01T16:58:30.805Z,23.30
2022-12-01T17:00:58.989Z,25.00
2022-12-01T17:03:28.420Z,27.50
2022-12-01T17:06:00.721Z,33.60
2022-12-01T17:08:28.757Z,32.30
2022-12-01T17:10:56.956Z,30.10
2022-12-01T17:13:25.288Z,32.40
2022-12-01T17:15:55.291Z,31.80
2022-12-01T17:18:24.037Z,34.70
2022-12-01T17:21:02.902Z,48.30
2022-12-01T17:23:32.819Z,85.30
2022-12-01T17:26:01.609Z,64.60
2022-12-01T17:28:29.709Z,75.10
2022-12-01T17:31:00.617Z,86.70
2022-12-01T17:33:29.066Z,108.70
2022-12-01T17:36:02.810Z,86.40
2022-12-01T17:38:30.971Z,88.70
2022-12-01T17:41:00.720Z,96.10
2022-12-01T17:43:29.134Z,92.60
2022-12-01T17:45:57.266Z,88.90
2022-12-01T17:48:26.057Z,83.00
2022-12-01T17:50:54.059Z,86.80
2022-12-01T17:53:21.967Z,85.60
2022-12-01T17:55:51.195Z,86.30
2022-12-01T17:58:21.546Z,97.50
2022-12-01T18:00:53.673Z,92.00
2022-12-01T18:03:21.754Z,85.50
2022-12-01T18:06:00.071Z,83.60
2022-12-01T18:08:30.439Z,86.40
2022-12-01T18:11:03.846Z,91.80
2022-12-01T18:13:31.752Z,92.00
2022-12-01T18:15:59.669Z,91.10
2022-12-01T18:18:27.759Z,90.30
2022-12-01T18:20:55.630Z,90.40
2022-12-01T18:23:23.533Z,95.10
2022-12-01T18:25:51.819Z,97.70
2022-12-01T18:28:20.322Z,98.10
2022-12-01T18:30:49.418Z,99.70
2022-12-01T18:33:18.221Z,104.00
2022-12-01T18:35:46.031Z,107.60
2022-12-01T18:38:14.190Z,102.50
2022-12-01T18:40:42.379Z,92.10
2022-12-01T18:43:10.192Z,95.50
2022-12-01T18:45:40.166Z,101.90
2022-12-01T18:48:08.544Z,95.60
2022-12-01T18:50:36.610Z,84.70
2022-12-01T18:53:05.100Z,85.70
2022-12-01T18:55:36.524Z,96.90
2022-12-01T18:58:04.592Z,94.40
2022-12-01T19:00:33.033Z,101.50
2022-12-01T19:03:01.782Z,103.60
2022-12-01T19:05:30.807Z,102.20
2022-12-01T19:07:59.147Z,99.00
2022-12-01T19:10:27.461Z,105.40
2022-12-01T19:12:55.449Z,103.80
2022-12-01T19:15:23.449Z,100.20
2022-12-01T19:17:51.295Z,96.00
2022-12-01T19:20:19.644Z,94.70
2022-12-01T19:22:48.558Z,89.80
2022-12-01T19:25:16.806Z,99.70
2022-12-01T19:27:45.169Z,99.10
2022-12-01T19:30:13.220Z,94.60
2022-12-01T19:32:43.499Z,94.10
2022-12-01T19:35:11.886Z,92.80
2022-12-01T19:37:39.790Z,97.80
2022-12-01T19:40:08.527Z,92.60
2022-12-01T19:42:36.729Z,92.60
2022-12-01T19:45:05.225Z,85.70
2022-12-01T19:47:34.684Z,76.80
2022-12-01T19:50:03.423Z,75.50
2022-12-01T19:52:31.196Z,78.40
2022-12-01T19:54:59.852Z,76.00
2022-12-01T19:57:27.815Z,71.70
2022-12-01T19:59:55.738Z,75.40
2022-12-01T20:02:28.943Z,76.30
2022-12-01T20:04:57.557Z,74.70
2022-12-01T20:07:25.751Z,79.70
2022-12-01T20:09:53.891Z,76.30
2022-12-01T20:12:22.015Z,75.40
2022-12-01T20:14:50.336Z,74.60
2022-12-01T20:17:18.879Z,74.50
2022-12-01T20:19:46.890Z,72.60
2022-12-01T20:22:14.800Z,72.80
2022-12-01T20:24:42.777Z,71.70
2022-12-01T20:27:10.729Z,69.80
2022-12-01T20:29:38.896Z,71.20
2022-12-01T20:32:07.169Z,76.90
2022-12-01T20:34:36.460Z,69.60
2022-12-01T20:37:04.670Z,70.70
2022-12-01T20:39:34.691Z,69.40
2022-12-01T20:42:02.759Z,72.30
2022-12-01T20:44:30.854Z,68.20
2022-12-01T20:46:58.895Z,66.00
2022-12-01T20:49:27.130Z,64.30
2022-12-01T20:51:55.389Z,69.50
2022-12-01T20:54:28.331Z,68.60
2022-12-01T20:56:58.292Z,66.00
2022-12-01T20:59:27.127Z,65.30
2022-12-01T21:01:55.487Z,68.10
2022-12-01T21:04:23.747Z,64.00
2022-12-01T21:06:55.717Z,64.80
2022-12-01T21:09:23.775Z,66.20
2022-12-01T21:12:10.244Z,66.80
2022-12-01T21:14:44.673Z,69.40
2022-12-01T21:17:32.406Z,68.30
2022-12-01T21:20:18.232Z,63.90
2022-12-01T21:22:46.727Z,69.50
2022-12-01T21:25:18.885Z,70.30
2022-12-01T21:27:48.147Z,65.00
2022-12-01T21:30:30.030Z,65.80
2022-12-01T21:33:26.332Z,62.10
2022-12-01T21:35:55.906Z,60.00
2022-12-01T21:38:25.175Z,61.50
2022-12-01T21:40:53.260Z,63.90
2022-12-01T21:43:23.895Z,66.40
2022-12-01T21:46:13.864Z,61.40
2022-12-01T21:48:42.762Z,59.50
2022-12-01T21:51:21.172Z,57.70
2022-12-01T21:53:50.269Z,58.10
2022-12-01T21:56:27.633Z,60.80
2022-12-01T21:58:59.261Z,61.20
2022-12-01T22:01:30.001Z,56.70
2022-12-01T22:04:09.113Z,56.50
2022-12-01T22:06:43.359Z,58.80
2022-12-01T22:09:17.655Z,63.10
2022-12-01T22:11:51.004Z,65.30
2022-12-01T22:14:26.401Z,67.90
2022-12-01T22:17:06.872Z,65.60
2022-12-01T22:19:40.163Z,69.50
2022-12-01T22:22:11.301Z,70.20
2022-12-01T22:24:40.941Z,62.90
2022-12-01T22:27:19.288Z,62.90
2022-12-01T22:29:49.143Z,61.30
2022-12-01T22:32:16.963Z,45.20
2022-12-01T22:34:55.295Z,35.20
2022-12-01T22:37:28.505Z,27.40
2022-12-01T22:39:57.346Z,22.00
2022-12-01T22:42:32.112Z,22.30
2022-12-01T22:45:14.946Z,20.80
2022-12-01T22:47:42.754Z,20.60
2022-12-01T22:50:31.423Z,23.00
2022-12-01T22:53:06.511Z,20.20
2022-12-01T22:55:34.810Z,19.50
2022-12-01T22:58:21.919Z,19.50
2022-12-01T23:00:50.281Z,23.30
2022-12-01T23:03:18.518Z,27.60
2022-12-01T23:05:53.148Z,37.60
2022-12-01T23:08:23.318Z,53.50
2022-12-01T23:10:51.989Z,58.70
2022-12-01T23:13:24.943Z,66.30
2022-12-01T23:15:54.180Z,74.70
2022-12-01T23:18:33.364Z,76.30
2022-12-01T23:21:02.170Z,63.80
2022-12-01T23:23:35.871Z,57.90
2022-12-01T23:26:06.363Z,54.20
2022-12-01T23:28:41.597Z,56.00
2022-12-01T23:31:10.302Z,58.90
2022-12-01T23:33:38.491Z,56.90
2022-12-01T23:36:17.012Z,62.70
2022-12-01T23:38:51.902Z,66.80
2022-12-01T23:41:26.462Z,67.80
2022-12-01T23:43:55.915Z,61.50
2022-12-01T23:46:27.756Z,63.20
2022-12-01T23:49:02.703Z,63.80
2022-12-01T23:51:47.842Z,67.00
2022-12-01T23:54:28.898Z,68.00
2022-12-01T23:57:01.506Z,66.80
2022-12-01T23:59:31.884Z,60.50
